sensor_id;sensor_type;location;lat;lon;timestamp;P1;durP1;ratioP1;P2;durP2;ratioP2
16407;SDS011;8313;49.894;8.084;2022-11-23T00:00:24;3.90;;;3.43;;
16407;SDS011;8313;49.894;8.084;2022-11-23T00:02:56;6.10;;;4.60;;
16407;SDS011;8313;49.894;8.084;2022-11-23T00:05:23;8.20;;;6.27;;
16407;SDS011;8313;49.894;8.084;2022-11-23T00:07:49;6.90;;;6.20;;
16407;SDS011;8313;49.894;8.084;2022-11-23T00:10:15;6.70;;;5.43;;
16407;SDS011;8313;49.894;8.084;2022-11-23T00:12:41;9.10;;;7.60;;
16407;SDS011;8313;49.894;8.084;2022-11-23T00:15:08;8.23;;;7.43;;
16407;SDS011;8313;49.894;8.084;2022-11-23T00:17:34;6.20;;;5.30;;
16407;SDS011;8313;49.894;8.084;2022-11-23T00:20:00;4.30;;;3.90;;
16407;SDS011;8313;49.894;8.084;2022-11-23T00:22:25;4.00;;;3.40;;
16407;SDS011;8313;49.894;8.084;2022-11-23T00:24:51;4.00;;;2.50;;
16407;SDS011;8313;49.894;8.084;2022-11-23T00:27:16;2.93;;;2.73;;
16407;SDS011;8313;49.894;8.084;2022-11-23T00:29:42;7.93;;;2.27;;
16407;SDS011;8313;49.894;8.084;2022-11-23T00:32:08;3.77;;;2.70;;
16407;SDS011;8313;49.894;8.084;2022-11-23T00:34:35;5.27;;;2.10;;
16407;SDS011;8313;49.894;8.084;2022-11-23T00:37:01;4.10;;;2.20;;
16407;SDS011;8313;49.894;8.084;2022-11-23T00:39:27;5.83;;;2.43;;
16407;SDS011;8313;49.894;8.084;2022-11-23T00:41:52;4.50;;;1.60;;
16407;SDS011;8313;49.894;8.084;2022-11-23T00:44:18;6.13;;;1.67;;
16407;SDS011;8313;49.894;8.084;2022-11-23T00:46:44;5.73;;;2.03;;
16407;SDS011;8313;49.894;8.084;2022-11-23T00:49:09;2.60;;;1.67;;
16407;SDS011;8313;49.894;8.084;2022-11-23T00:51:36;3.17;;;1.70;;
16407;SDS011;8313;49.894;8.084;2022-11-23T00:54:02;2.00;;;1.27;;
16407;SDS011;8313;49.894;8.084;2022-11-23T00:56:29;2.43;;;1.50;;
16407;SDS011;8313;49.894;8.084;2022-11-23T00:58:58;3.37;;;1.67;;
16407;SDS011;8313;49.894;8.084;2022-11-23T01:01:25;2.40;;;1.70;;
16407;SDS011;8313;49.894;8.084;2022-11-23T01:03:54;3.07;;;1.20;;
16407;SDS011;8313;49.894;8.084;2022-11-23T01:06:26;1.80;;;1.60;;
16407;SDS011;8313;49.894;8.084;2022-11-23T01:08:54;2.57;;;2.03;;
16407;SDS011;8313;49.894;8.084;2022-11-23T01:11:22;2.10;;;1.33;;
16407;SDS011;8313;49.894;8.084;2022-11-23T01:13:49;7.50;;;1.57;;
16407;SDS011;8313;49.894;8.084;2022-11-23T01:16:16;2.10;;;1.40;;
16407;SDS011;8313;49.894;8.084;2022-11-23T01:18:57;5.40;;;1.47;;
16407;SDS011;8313;49.894;8.084;2022-11-23T01:21:28;4.20;;;1.20;;
16407;SDS011;8313;49.894;8.084;2022-11-23T01:23:55;5.60;;;1.73;;
16407;SDS011;8313;49.894;8.084;2022-11-23T01:26:22;3.00;;;2.03;;
16407;SDS011;8313;49.894;8.084;2022-11-23T01:28:47;1.70;;;1.60;;
16407;SDS011;8313;49.894;8.084;2022-11-23T01:31:14;5.37;;;1.23;;
16407;SDS011;8313;49.894;8.084;2022-11-23T01:33:43;2.03;;;1.50;;
16407;SDS011;8313;49.894;8.084;2022-11-23T01:36:13;1.60;;;1.40;;
16407;SDS011;8313;49.894;8.084;2022-11-23T01:38:42;2.20;;;1.57;;
16407;SDS011;8313;49.894;8.084;2022-11-23T01:41:11;3.30;;;1.57;;
16407;SDS011;8313;49.894;8.084;2022-11-23T01:43:38;5.67;;;2.00;;
16407;SDS011;8313;49.894;8.084;2022-11-23T01:46:04;2.43;;;1.70;;
16407;SDS011;8313;49.894;8.084;2022-11-23T01:51:12;3.70;;;1.87;;
16407;SDS011;8313;49.894;8.084;2022-11-23T01:53:41;8.23;;;2.07;;
16407;SDS011;8313;49.894;8.084;2022-11-23T01:56:07;4.00;;;2.23;;
16407;SDS011;8313;49.894;8.084;2022-11-23T01:58:37;7.03;;;2.33;;
16407;SDS011;8313;49.894;8.084;2022-11-23T02:01:06;3.90;;;1.80;;
16407;SDS011;8313;49.894;8.084;2022-11-23T02:03:32;4.17;;;1.83;;
16407;SDS011;8313;49.894;8.084;2022-11-23T02:06:04;6.07;;;2.20;;
16407;SDS011;8313;49.894;8.084;2022-11-23T02:08:37;3.80;;;2.10;;
16407;SDS011;8313;49.894;8.084;2022-11-23T02:11:03;8.60;;;2.53;;
16407;SDS011;8313;49.894;8.084;2022-11-23T02:13:28;5.93;;;2.43;;
16407;SDS011;8313;49.894;8.084;2022-11-23T02:15:55;5.20;;;2.10;;
16407;SDS011;8313;49.894;8.084;2022-11-23T02:18:22;2.70;;;1.97;;
16407;SDS011;8313;49.894;8.084;2022-11-23T02:20:51;4.07;;;1.80;;
16407;SDS011;8313;49.894;8.084;2022-11-23T02:23:27;4.93;;;2.03;;
16407;SDS011;8313;49.894;8.084;2022-11-23T02:26:15;2.90;;;2.00;;
16407;SDS011;8313;49.894;8.084;2022-11-23T02:28:46;2.00;;;1.63;;
16407;SDS011;8313;49.894;8.084;2022-11-23T02:31:16;4.40;;;2.10;;
16407;SDS011;8313;49.894;8.084;2022-11-23T02:33:43;2.70;;;2.03;;
16407;SDS011;8313;49.894;8.084;2022-11-23T02:41:55;3.17;;;1.67;;
16407;SDS011;8313;49.894;8.084;2022-11-23T02:46:48;4.30;;;2.70;;
16407;SDS011;8313;49.894;8.084;2022-11-23T02:49:14;8.13;;;3.00;;
16407;SDS011;8313;49.894;8.084;2022-11-23T02:51:40;4.93;;;2.50;;
16407;SDS011;8313;49.894;8.084;2022-11-23T02:54:05;9.47;;;2.23;;
16407;SDS011;8313;49.894;8.084;2022-11-23T02:56:33;3.17;;;1.83;;
16407;SDS011;8313;49.894;8.084;2022-11-23T02:58:59;3.23;;;2.23;;
16407;SDS011;8313;49.894;8.084;2022-11-23T03:01:24;14.77;;;2.50;;
16407;SDS011;8313;49.894;8.084;2022-11-23T03:03:51;3.53;;;2.10;;
16407;SDS011;8313;49.894;8.084;2022-11-23T03:06:16;9.27;;;2.30;;
16407;SDS011;8313;49.894;8.084;2022-11-23T03:08:42;9.30;;;2.40;;
16407;SDS011;8313;49.894;8.084;2022-11-23T03:11:08;4.10;;;2.27;;
16407;SDS011;8313;49.894;8.084;2022-11-23T03:13:33;4.77;;;2.00;;
16407;SDS011;8313;49.894;8.084;2022-11-23T03:15:59;6.13;;;2.20;;
16407;SDS011;8313;49.894;8.084;2022-11-23T03:18:25;2.30;;;2.10;;
16407;SDS011;8313;49.894;8.084;2022-11-23T03:20:51;3.70;;;1.83;;
16407;SDS011;8313;49.894;8.084;2022-11-23T03:23:17;1.90;;;1.33;;
16407;SDS011;8313;49.894;8.084;2022-11-23T03:25:43;9.73;;;1.70;;
16407;SDS011;8313;49.894;8.084;2022-11-23T03:28:09;4.23;;;1.90;;
16407;SDS011;8313;49.894;8.084;2022-11-23T03:30:35;11.50;;;2.53;;
16407;SDS011;8313;49.894;8.084;2022-11-23T03:33:03;3.70;;;1.47;;
16407;SDS011;8313;49.894;8.084;2022-11-23T03:35:29;5.03;;;1.67;;
16407;SDS011;8313;49.894;8.084;2022-11-23T03:38:14;4.67;;;1.80;;
16407;SDS011;8313;49.894;8.084;2022-11-23T03:40:43;5.13;;;1.90;;
16407;SDS011;8313;49.894;8.084;2022-11-23T03:43:14;3.10;;;1.80;;
16407;SDS011;8313;49.894;8.084;2022-11-23T03:45:40;4.17;;;1.77;;
16407;SDS011;8313;49.894;8.084;2022-11-23T03:48:06;7.30;;;2.70;;
16407;SDS011;8313;49.894;8.084;2022-11-23T03:50:32;2.87;;;2.13;;
16407;SDS011;8313;49.894;8.084;2022-11-23T03:52:58;2.17;;;1.90;;
16407;SDS011;8313;49.894;8.084;2022-11-23T03:55:24;2.50;;;1.53;;
16407;SDS011;8313;49.894;8.084;2022-11-23T03:57:51;4.63;;;1.90;;
16407;SDS011;8313;49.894;8.084;2022-11-23T04:00:24;4.90;;;2.07;;
16407;SDS011;8313;49.894;8.084;2022-11-23T04:02:54;4.10;;;2.37;;
16407;SDS011;8313;49.894;8.084;2022-11-23T04:05:38;5.03;;;2.23;;
16407;SDS011;8313;49.894;8.084;2022-11-23T04:08:22;7.63;;;2.10;;
16407;SDS011;8313;49.894;8.084;2022-11-23T04:10:48;2.60;;;2.27;;
16407;SDS011;8313;49.894;8.084;2022-11-23T04:13:20;3.30;;;2.00;;
16407;SDS011;8313;49.894;8.084;2022-11-23T04:15:45;7.00;;;2.10;;
16407;SDS011;8313;49.894;8.084;2022-11-23T04:18:11;4.90;;;2.07;;
16407;SDS011;8313;49.894;8.084;2022-11-23T04:20:37;5.20;;;1.63;;
16407;SDS011;8313;49.894;8.084;2022-11-23T04:23:03;5.40;;;1.97;;
16407;SDS011;8313;49.894;8.084;2022-11-23T04:25:29;4.53;;;2.00;;
16407;SDS011;8313;49.894;8.084;2022-11-23T04:27:56;2.93;;;1.87;;
16407;SDS011;8313;49.894;8.084;2022-11-23T04:30:22;1.73;;;1.50;;
16407;SDS011;8313;49.894;8.084;2022-11-23T04:32:51;3.27;;;2.03;;
16407;SDS011;8313;49.894;8.084;2022-11-23T04:35:19;8.63;;;1.97;;
16407;SDS011;8313;49.894;8.084;2022-11-23T04:37:48;2.77;;;1.83;;
16407;SDS011;8313;49.894;8.084;2022-11-23T04:40:13;7.80;;;1.60;;
16407;SDS011;8313;49.894;8.084;2022-11-23T04:42:51;5.40;;;1.50;;
16407;SDS011;8313;49.894;8.084;2022-11-23T04:45:17;2.20;;;1.33;;
16407;SDS011;8313;49.894;8.084;2022-11-23T04:47:43;4.43;;;2.20;;
16407;SDS011;8313;49.894;8.084;2022-11-23T04:50:13;2.90;;;2.23;;
16407;SDS011;8313;49.894;8.084;2022-11-23T04:52:41;2.30;;;1.63;;
16407;SDS011;8313;49.894;8.084;2022-11-23T04:55:12;3.60;;;1.53;;
16407;SDS011;8313;49.894;8.084;2022-11-23T04:57:47;1.57;;;1.40;;
16407;SDS011;8313;49.894;8.084;2022-11-23T05:00:13;3.73;;;1.90;;
16407;SDS011;8313;49.894;8.084;2022-11-23T05:02:39;2.90;;;1.70;;
16407;SDS011;8313;49.894;8.084;2022-11-23T05:05:23;5.03;;;1.50;;
16407;SDS011;8313;49.894;8.084;2022-11-23T05:07:49;4.60;;;1.40;;
16407;SDS011;8313;49.894;8.084;2022-11-23T05:10:17;1.60;;;1.50;;
16407;SDS011;8313;49.894;8.084;2022-11-23T05:12:44;5.97;;;1.60;;
16407;SDS011;8313;49.894;8.084;2022-11-23T05:15:11;2.00;;;1.57;;
16407;SDS011;8313;49.894;8.084;2022-11-23T05:17:38;5.63;;;2.00;;
16407;SDS011;8313;49.894;8.084;2022-11-23T05:20:09;8.70;;;1.83;;
16407;SDS011;8313;49.894;8.084;2022-11-23T05:22:40;2.20;;;1.90;;
16407;SDS011;8313;49.894;8.084;2022-11-23T05:25:09;6.57;;;2.00;;
16407;SDS011;8313;49.894;8.084;2022-11-23T05:27:36;5.70;;;2.83;;
16407;SDS011;8313;49.894;8.084;2022-11-23T05:30:02;5.00;;;2.60;;
16407;SDS011;8313;49.894;8.084;2022-11-23T05:32:29;6.13;;;2.00;;
16407;SDS011;8313;49.894;8.084;2022-11-23T05:34:56;4.40;;;2.07;;
16407;SDS011;8313;49.894;8.084;2022-11-23T05:37:25;3.67;;;2.10;;
16407;SDS011;8313;49.894;8.084;2022-11-23T05:39:57;7.60;;;2.67;;
16407;SDS011;8313;49.894;8.084;2022-11-23T05:42:22;2.43;;;1.93;;
16407;SDS011;8313;49.894;8.084;2022-11-23T05:44:51;4.60;;;2.47;;
16407;SDS011;8313;49.894;8.084;2022-11-23T05:47:21;5.27;;;1.83;;
16407;SDS011;8313;49.894;8.084;2022-11-23T05:49:47;3.20;;;2.00;;
16407;SDS011;8313;49.894;8.084;2022-11-23T05:52:16;3.03;;;1.90;;
16407;SDS011;8313;49.894;8.084;2022-11-23T05:54:43;1.73;;;1.63;;
16407;SDS011;8313;49.894;8.084;2022-11-23T05:57:11;8.47;;;1.83;;
16407;SDS011;8313;49.894;8.084;2022-11-23T05:59:40;2.53;;;2.33;;
16407;SDS011;8313;49.894;8.084;2022-11-23T06:02:10;4.40;;;2.23;;
16407;SDS011;8313;49.894;8.084;2022-11-23T06:04:35;4.33;;;1.73;;
16407;SDS011;8313;49.894;8.084;2022-11-23T06:07:04;2.20;;;1.47;;
16407;SDS011;8313;49.894;8.084;2022-11-23T06:09:42;3.23;;;1.70;;
16407;SDS011;8313;49.894;8.084;2022-11-23T06:12:10;5.90;;;1.90;;
16407;SDS011;8313;49.894;8.084;2022-11-23T06:14:36;3.53;;;2.10;;
16407;SDS011;8313;49.894;8.084;2022-11-23T06:17:01;2.60;;;1.60;;
16407;SDS011;8313;49.894;8.084;2022-11-23T06:19:33;4.53;;;2.13;;
16407;SDS011;8313;49.894;8.084;2022-11-23T06:21:59;4.17;;;1.90;;
16407;SDS011;8313;49.894;8.084;2022-11-23T06:24:29;7.17;;;1.90;;
16407;SDS011;8313;49.894;8.084;2022-11-23T06:27:24;2.13;;;1.50;;
16407;SDS011;8313;49.894;8.084;2022-11-23T06:29:50;5.93;;;1.87;;
16407;SDS011;8313;49.894;8.084;2022-11-23T06:32:16;2.50;;;2.30;;
16407;SDS011;8313;49.894;8.084;2022-11-23T06:34:42;2.37;;;1.77;;
16407;SDS011;8313;49.894;8.084;2022-11-23T06:37:08;2.63;;;1.40;;
16407;SDS011;8313;49.894;8.084;2022-11-23T06:39:34;6.63;;;1.33;;
16407;SDS011;8313;49.894;8.084;2022-11-23T06:42:01;4.27;;;1.50;;
16407;SDS011;8313;49.894;8.084;2022-11-23T06:44:27;3.13;;;1.93;;
16407;SDS011;8313;49.894;8.084;2022-11-23T06:46:53;4.10;;;1.93;;
16407;SDS011;8313;49.894;8.084;2022-11-23T06:49:19;2.50;;;2.10;;
16407;SDS011;8313;49.894;8.084;2022-11-23T06:52:00;2.40;;;1.50;;
16407;SDS011;8313;49.894;8.084;2022-11-23T06:54:26;3.63;;;1.30;;
16407;SDS011;8313;49.894;8.084;2022-11-23T06:56:51;3.73;;;1.80;;
16407;SDS011;8313;49.894;8.084;2022-11-23T06:59:17;3.17;;;1.67;;
16407;SDS011;8313;49.894;8.084;2022-11-23T07:01:43;2.50;;;1.77;;
16407;SDS011;8313;49.894;8.084;2022-11-23T07:04:09;3.67;;;1.30;;
16407;SDS011;8313;49.894;8.084;2022-11-23T07:06:42;2.80;;;1.80;;
16407;SDS011;8313;49.894;8.084;2022-11-23T07:09:18;3.37;;;2.03;;
16407;SDS011;8313;49.894;8.084;2022-11-23T07:11:53;3.33;;;1.93;;
16407;SDS011;8313;49.894;8.084;2022-11-23T07:14:19;2.50;;;1.13;;
16407;SDS011;8313;49.894;8.084;2022-11-23T07:16:47;4.70;;;1.83;;
16407;SDS011;8313;49.894;8.084;2022-11-23T07:19:14;4.33;;;2.23;;
16407;SDS011;8313;49.894;8.084;2022-11-23T07:21:40;7.93;;;2.17;;
16407;SDS011;8313;49.894;8.084;2022-11-23T07:24:06;3.33;;;2.97;;
16407;SDS011;8313;49.894;8.084;2022-11-23T07:26:33;8.13;;;2.03;;
16407;SDS011;8313;49.894;8.084;2022-11-23T07:28:59;4.93;;;2.50;;
16407;SDS011;8313;49.894;8.084;2022-11-23T07:31:25;2.63;;;2.20;;
16407;SDS011;8313;49.894;8.084;2022-11-23T07:33:51;3.30;;;1.50;;
16407;SDS011;8313;49.894;8.084;2022-11-23T07:36:17;1.50;;;1.20;;
16407;SDS011;8313;49.894;8.084;2022-11-23T07:38:44;2.60;;;1.87;;
16407;SDS011;8313;49.894;8.084;2022-11-23T07:41:11;6.73;;;1.90;;
16407;SDS011;8313;49.894;8.084;2022-11-23T07:43:51;4.50;;;2.10;;
16407;SDS011;8313;49.894;8.084;2022-11-23T07:46:17;4.00;;;1.83;;
16407;SDS011;8313;49.894;8.084;2022-11-23T07:48:43;7.27;;;1.90;;
16407;SDS011;8313;49.894;8.084;2022-11-23T07:51:08;4.37;;;2.90;;
16407;SDS011;8313;49.894;8.084;2022-11-23T07:53:34;4.73;;;2.20;;
16407;SDS011;8313;49.894;8.084;2022-11-23T07:56:00;6.70;;;2.27;;
16407;SDS011;8313;49.894;8.084;2022-11-23T07:58:26;10.40;;;2.00;;
16407;SDS011;8313;49.894;8.084;2022-11-23T08:00:52;3.00;;;2.20;;
16407;SDS011;8313;49.894;8.084;2022-11-23T08:03:18;3.47;;;2.37;;
16407;SDS011;8313;49.894;8.084;2022-11-23T08:05:44;10.53;;;2.23;;
16407;SDS011;8313;49.894;8.084;2022-11-23T08:08:10;3.80;;;2.50;;
16407;SDS011;8313;49.894;8.084;2022-11-23T08:10:36;8.33;;;2.20;;
16407;SDS011;8313;49.894;8.084;2022-11-23T08:13:03;6.13;;;1.90;;
16407;SDS011;8313;49.894;8.084;2022-11-23T08:15:30;1.87;;;1.47;;
16407;SDS011;8313;49.894;8.084;2022-11-23T08:17:56;4.23;;;1.83;;
16407;SDS011;8313;49.894;8.084;2022-11-23T08:20:23;5.77;;;2.10;;
16407;SDS011;8313;49.894;8.084;2022-11-23T08:22:49;4.77;;;2.60;;
16407;SDS011;8313;49.894;8.084;2022-11-23T08:25:15;3.90;;;2.07;;
16407;SDS011;8313;49.894;8.084;2022-11-23T08:27:41;2.03;;;1.83;;
16407;SDS011;8313;49.894;8.084;2022-11-23T08:30:07;3.90;;;1.87;;
16407;SDS011;8313;49.894;8.084;2022-11-23T08:32:33;3.43;;;1.93;;
16407;SDS011;8313;49.894;8.084;2022-11-23T08:34:59;4.33;;;1.77;;
16407;SDS011;8313;49.894;8.084;2022-11-23T08:37:25;3.60;;;2.00;;
16407;SDS011;8313;49.894;8.084;2022-11-23T08:39:50;2.67;;;1.50;;
16407;SDS011;8313;49.894;8.084;2022-11-23T08:42:16;3.57;;;1.90;;
16407;SDS011;8313;49.894;8.084;2022-11-23T08:44:41;1.57;;;1.47;;
16407;SDS011;8313;49.894;8.084;2022-11-23T08:47:07;3.67;;;1.63;;
16407;SDS011;8313;49.894;8.084;2022-11-23T08:49:33;6.23;;;1.90;;
16407;SDS011;8313;49.894;8.084;2022-11-23T08:51:58;3.93;;;2.00;;
16407;SDS011;8313;49.894;8.084;2022-11-23T08:54:24;8.33;;;1.47;;
16407;SDS011;8313;49.894;8.084;2022-11-23T08:56:50;4.07;;;1.67;;
16407;SDS011;8313;49.894;8.084;2022-11-23T08:59:16;3.60;;;1.27;;
16407;SDS011;8313;49.894;8.084;2022-11-23T09:01:43;3.53;;;1.83;;
16407;SDS011;8313;49.894;8.084;2022-11-23T09:04:09;1.30;;;1.20;;
16407;SDS011;8313;49.894;8.084;2022-11-23T09:06:35;2.70;;;1.40;;
16407;SDS011;8313;49.894;8.084;2022-11-23T09:09:00;3.40;;;1.40;;
16407;SDS011;8313;49.894;8.084;2022-11-23T09:11:26;1.90;;;1.63;;
16407;SDS011;8313;49.894;8.084;2022-11-23T09:13:52;1.40;;;1.30;;
16407;SDS011;8313;49.894;8.084;2022-11-23T09:16:18;6.93;;;4.67;;
16407;SDS011;8313;49.894;8.084;2022-11-23T09:18:44;4.87;;;3.60;;
16407;SDS011;8313;49.894;8.084;2022-11-23T09:21:10;6.00;;;4.90;;
16407;SDS011;8313;49.894;8.084;2022-11-23T09:23:36;3.87;;;2.40;;
16407;SDS011;8313;49.894;8.084;2022-11-23T09:26:02;8.43;;;2.20;;
16407;SDS011;8313;49.894;8.084;2022-11-23T09:28:29;3.57;;;2.10;;
16407;SDS011;8313;49.894;8.084;2022-11-23T09:30:56;3.23;;;2.93;;
16407;SDS011;8313;49.894;8.084;2022-11-23T09:33:22;13.30;;;4.50;;
16407;SDS011;8313;49.894;8.084;2022-11-23T09:35:58;2.47;;;2.27;;
16407;SDS011;8313;49.894;8.084;2022-11-23T09:38:26;3.13;;;1.20;;
16407;SDS011;8313;49.894;8.084;2022-11-23T09:41:02;3.97;;;2.27;;
16407;SDS011;8313;49.894;8.084;2022-11-23T09:43:55;4.53;;;1.73;;
16407;SDS011;8313;49.894;8.084;2022-11-23T09:47:01;2.90;;;1.83;;
16407;SDS011;8313;49.894;8.084;2022-11-23T09:52:18;3.80;;;2.10;;
16407;SDS011;8313;49.894;8.084;2022-11-23T09:54:47;4.60;;;1.70;;
16407;SDS011;8313;49.894;8.084;2022-11-23T09:57:15;5.03;;;1.37;;
16407;SDS011;8313;49.894;8.084;2022-11-23T09:59:49;3.50;;;1.43;;
16407;SDS011;8313;49.894;8.084;2022-11-23T10:02:20;4.63;;;1.53;;
16407;SDS011;8313;49.894;8.084;2022-11-23T10:04:49;3.00;;;1.20;;
16407;SDS011;8313;49.894;8.084;2022-11-23T10:09:56;4.33;;;1.33;;
16407;SDS011;8313;49.894;8.084;2022-11-23T10:15:19;7.43;;;1.47;;
16407;SDS011;8313;49.894;8.084;2022-11-23T10:23:01;4.00;;;1.73;;
16407;SDS011;8313;49.894;8.084;2022-11-23T10:25:33;3.30;;;1.67;;
16407;SDS011;8313;49.894;8.084;2022-11-23T10:28:14;4.90;;;1.40;;
16407;SDS011;8313;49.894;8.084;2022-11-23T10:30:41;2.57;;;1.77;;
16407;SDS011;8313;49.894;8.084;2022-11-23T10:35:35;7.50;;;2.53;;
16407;SDS011;8313;49.894;8.084;2022-11-23T10:38:12;6.60;;;3.33;;
16407;SDS011;8313;49.894;8.084;2022-11-23T10:40:39;4.40;;;3.10;;
16407;SDS011;8313;49.894;8.084;2022-11-23T10:43:16;4.20;;;2.67;;
16407;SDS011;8313;49.894;8.084;2022-11-23T10:45:46;4.20;;;1.83;;
16407;SDS011;8313;49.894;8.084;2022-11-23T10:48:12;2.30;;;1.40;;
16407;SDS011;8313;49.894;8.084;2022-11-23T10:51:13;4.97;;;3.13;;
16407;SDS011;8313;49.894;8.084;2022-11-23T10:54:16;11.27;;;4.53;;
16407;SDS011;8313;49.894;8.084;2022-11-23T10:56:49;6.00;;;4.03;;
16407;SDS011;8313;49.894;8.084;2022-11-23T10:59:26;8.40;;;3.30;;
16407;SDS011;8313;49.894;8.084;2022-11-23T11:02:17;4.90;;;3.03;;
16407;SDS011;8313;49.894;8.084;2022-11-23T11:04:46;7.20;;;4.83;;
16407;SDS011;8313;49.894;8.084;2022-11-23T11:07:21;3.63;;;2.20;;
16407;SDS011;8313;49.894;8.084;2022-11-23T11:09:52;9.40;;;3.00;;
16407;SDS011;8313;49.894;8.084;2022-11-23T11:12:19;3.67;;;2.97;;
16407;SDS011;8313;49.894;8.084;2022-11-23T11:14:56;4.70;;;2.57;;
16407;SDS011;8313;49.894;8.084;2022-11-23T11:17:29;3.13;;;1.63;;
16407;SDS011;8313;49.894;8.084;2022-11-23T11:19:56;7.93;;;2.53;;
16407;SDS011;8313;49.894;8.084;2022-11-23T11:22:33;4.63;;;2.43;;
16407;SDS011;8313;49.894;8.084;2022-11-23T11:25:03;2.80;;;2.17;;
16407;SDS011;8313;49.894;8.084;2022-11-23T11:27:30;2.03;;;1.83;;
16407;SDS011;8313;49.894;8.084;2022-11-23T11:30:06;2.60;;;1.60;;
16407;SDS011;8313;49.894;8.084;2022-11-23T11:33:31;4.90;;;2.00;;
16407;SDS011;8313;49.894;8.084;2022-11-23T11:35:46;6.73;;;2.13;;
16407;SDS011;8313;49.894;8.084;2022-11-23T11:38:32;7.60;;;1.70;;
16407;SDS011;8313;49.894;8.084;2022-11-23T11:41:04;5.43;;;1.40;;
16407;SDS011;8313;49.894;8.084;2022-11-23T11:43:50;2.50;;;1.20;;
16407;SDS011;8313;49.894;8.084;2022-11-23T11:46:22;3.13;;;1.60;;
16407;SDS011;8313;49.894;8.084;2022-11-23T11:54:26;3.80;;;3.50;;
16407;SDS011;8313;49.894;8.084;2022-11-23T11:57:02;3.20;;;2.87;;
16407;SDS011;8313;49.894;8.084;2022-11-23T11:59:42;2.20;;;1.40;;
16407;SDS011;8313;49.894;8.084;2022-11-23T12:02:25;3.70;;;1.80;;
16407;SDS011;8313;49.894;8.084;2022-11-23T12:07:37;8.60;;;5.80;;
16407;SDS011;8313;49.894;8.084;2022-11-23T12:10:35;15.03;;;12.47;;
16407;SDS011;8313;49.894;8.084;2022-11-23T12:13:18;7.33;;;6.43;;
16407;SDS011;8313;49.894;8.084;2022-11-23T12:15:52;3.70;;;2.40;;
16407;SDS011;8313;49.894;8.084;2022-11-23T12:21:03;5.23;;;1.83;;
16407;SDS011;8313;49.894;8.084;2022-11-23T12:26:11;2.07;;;1.43;;
16407;SDS011;8313;49.894;8.084;2022-11-23T12:31:49;6.10;;;1.60;;
16407;SDS011;8313;49.894;8.084;2022-11-23T12:39:52;3.47;;;1.00;;
16407;SDS011;8313;49.894;8.084;2022-11-23T12:42:49;4.07;;;1.27;;
16407;SDS011;8313;49.894;8.084;2022-11-23T12:58:55;5.07;;;1.47;;
16407;SDS011;8313;49.894;8.084;2022-11-23T13:01:30;5.43;;;1.40;;
16407;SDS011;8313;49.894;8.084;2022-11-23T13:15:25;2.50;;;1.10;;
16407;SDS011;8313;49.894;8.084;2022-11-23T13:21:06;1.10;;;1.00;;
16407;SDS011;8313;49.894;8.084;2022-11-23T13:23:42;7.17;;;1.20;;
16407;SDS011;8313;49.894;8.084;2022-11-23T13:28:47;1.43;;;0.90;;
16407;SDS011;8313;49.894;8.084;2022-11-23T13:33:46;6.00;;;1.30;;
16407;SDS011;8313;49.894;8.084;2022-11-23T13:38:55;1.80;;;1.40;;
16407;SDS011;8313;49.894;8.084;2022-11-23T13:46:43;2.87;;;1.27;;
16407;SDS011;8313;49.894;8.084;2022-11-23T13:57:27;4.60;;;1.23;;
16407;SDS011;8313;49.894;8.084;2022-11-23T13:59:53;3.87;;;1.30;;
16407;SDS011;8313;49.894;8.084;2022-11-23T14:02:23;4.37;;;0.87;;
16407;SDS011;8313;49.894;8.084;2022-11-23T14:04:51;2.23;;;1.30;;
16407;SDS011;8313;49.894;8.084;2022-11-23T14:07:39;3.97;;;0.97;;
16407;SDS011;8313;49.894;8.084;2022-11-23T14:12:48;5.03;;;1.10;;
16407;SDS011;8313;49.894;8.084;2022-11-23T14:15:33;1.07;;;0.97;;
16407;SDS011;8313;49.894;8.084;2022-11-23T14:24:16;3.23;;;1.17;;
16407;SDS011;8313;49.894;8.084;2022-11-23T14:27:14;2.77;;;1.07;;
16407;SDS011;8313;49.894;8.084;2022-11-23T14:30:04;1.67;;;1.00;;
16407;SDS011;8313;49.894;8.084;2022-11-23T14:38:33;1.70;;;1.20;;
16407;SDS011;8313;49.894;8.084;2022-11-23T14:41:09;2.00;;;1.80;;
16407;SDS011;8313;49.894;8.084;2022-11-23T14:43:40;1.37;;;1.00;;
16407;SDS011;8313;49.894;8.084;2022-11-23T14:46:13;1.10;;;0.87;;
16407;SDS011;8313;49.894;8.084;2022-11-23T14:48:44;2.40;;;1.13;;
16407;SDS011;8313;49.894;8.084;2022-11-23T14:51:11;2.53;;;0.97;;
16407;SDS011;8313;49.894;8.084;2022-11-23T14:53:47;2.47;;;1.50;;
16407;SDS011;8313;49.894;8.084;2022-11-23T14:58:50;3.20;;;1.50;;
16407;SDS011;8313;49.894;8.084;2022-11-23T15:01:18;1.33;;;1.20;;
16407;SDS011;8313;49.894;8.084;2022-11-23T15:03:59;2.53;;;1.10;;
16407;SDS011;8313;49.894;8.084;2022-11-23T15:06:33;1.63;;;1.10;;
16407;SDS011;8313;49.894;8.084;2022-11-23T15:09:07;1.77;;;1.00;;
16407;SDS011;8313;49.894;8.084;2022-11-23T15:12:04;2.67;;;1.60;;
16407;SDS011;8313;49.894;8.084;2022-11-23T15:14:31;8.83;;;2.40;;
16407;SDS011;8313;49.894;8.084;2022-11-23T15:17:11;4.17;;;2.23;;
16407;SDS011;8313;49.894;8.084;2022-11-23T15:19:39;3.73;;;1.80;;
16407;SDS011;8313;49.894;8.084;2022-11-23T15:22:13;3.77;;;1.87;;
16407;SDS011;8313;49.894;8.084;2022-11-23T15:24:41;3.33;;;1.83;;
16407;SDS011;8313;49.894;8.084;2022-11-23T15:27:08;4.60;;;2.20;;
16407;SDS011;8313;49.894;8.084;2022-11-23T15:29:51;2.53;;;2.03;;
16407;SDS011;8313;49.894;8.084;2022-11-23T15:32:20;3.23;;;2.20;;
16407;SDS011;8313;49.894;8.084;2022-11-23T15:34:57;2.20;;;1.70;;
16407;SDS011;8313;49.894;8.084;2022-11-23T15:37:25;2.40;;;2.00;;
16407;SDS011;8313;49.894;8.084;2022-11-23T15:39:51;2.73;;;1.90;;
16407;SDS011;8313;49.894;8.084;2022-11-23T15:42:20;3.07;;;2.20;;
16407;SDS011;8313;49.894;8.084;2022-11-23T15:44:48;5.97;;;2.73;;
16407;SDS011;8313;49.894;8.084;2022-11-23T15:47:15;2.17;;;1.90;;
16407;SDS011;8313;49.894;8.084;2022-11-23T15:49:48;2.20;;;1.90;;
16407;SDS011;8313;49.894;8.084;2022-11-23T15:52:15;5.03;;;1.90;;
16407;SDS011;8313;49.894;8.084;2022-11-23T15:54:43;1.70;;;1.60;;
16407;SDS011;8313;49.894;8.084;2022-11-23T15:57:12;2.50;;;1.80;;
16407;SDS011;8313;49.894;8.084;2022-11-23T16:00:00;4.00;;;1.70;;
16407;SDS011;8313;49.894;8.084;2022-11-23T16:02:36;2.10;;;1.17;;
16407;SDS011;8313;49.894;8.084;2022-11-23T16:07:48;2.90;;;1.40;;
16407;SDS011;8313;49.894;8.084;2022-11-23T16:10:17;3.20;;;1.30;;
16407;SDS011;8313;49.894;8.084;2022-11-23T16:12:47;2.53;;;1.20;;
16407;SDS011;8313;49.894;8.084;2022-11-23T16:18:02;4.87;;;1.50;;
16407;SDS011;8313;49.894;8.084;2022-11-23T16:20:29;3.20;;;1.37;;
16407;SDS011;8313;49.894;8.084;2022-11-23T16:22:55;1.07;;;0.97;;
16407;SDS011;8313;49.894;8.084;2022-11-23T16:27:58;11.47;;;6.33;;
16407;SDS011;8313;49.894;8.084;2022-11-23T16:30:35;13.57;;;6.50;;
16407;SDS011;8313;49.894;8.084;2022-11-23T16:33:08;35.77;;;17.47;;
16407;SDS011;8313;49.894;8.084;2022-11-23T16:35:38;51.20;;;27.17;;
16407;SDS011;8313;49.894;8.084;2022-11-23T16:38:04;79.13;;;39.23;;
16407;SDS011;8313;49.894;8.084;2022-11-23T16:40:30;80.07;;;39.83;;
16407;SDS011;8313;49.894;8.084;2022-11-23T16:42:57;60.90;;;31.93;;
16407;SDS011;8313;49.894;8.084;2022-11-23T16:45:23;278.87;;;111.27;;
16407;SDS011;8313;49.894;8.084;2022-11-23T16:47:54;375.37;;;157.90;;
16407;SDS011;8313;49.894;8.084;2022-11-23T16:50:25;184.90;;;82.67;;
16407;SDS011;8313;49.894;8.084;2022-11-23T16:52:52;61.63;;;30.30;;
16407;SDS011;8313;49.894;8.084;2022-11-23T16:55:18;29.97;;;15.03;;
16407;SDS011;8313;49.894;8.084;2022-11-23T16:57:44;9.40;;;5.17;;
16407;SDS011;8313;49.894;8.084;2022-11-23T17:00:22;5.00;;;3.50;;
16407;SDS011;8313;49.894;8.084;2022-11-23T17:02:48;5.77;;;3.30;;
16407;SDS011;8313;49.894;8.084;2022-11-23T17:07:40;2.17;;;1.83;;
16407;SDS011;8313;49.894;8.084;2022-11-23T17:10:06;2.57;;;1.60;;
16407;SDS011;8313;49.894;8.084;2022-11-23T17:12:33;3.47;;;2.20;;
16407;SDS011;8313;49.894;8.084;2022-11-23T17:15:00;3.50;;;1.80;;
16407;SDS011;8313;49.894;8.084;2022-11-23T17:17:27;3.60;;;2.03;;
16407;SDS011;8313;49.894;8.084;2022-11-23T17:19:54;2.83;;;2.00;;
16407;SDS011;8313;49.894;8.084;2022-11-23T17:22:20;1.20;;;1.07;;